Date/Time EST BROAD KEY-Water Temp BROAD KEY-Linear Conductivity BROAD KEY-Non Linear Conductivity BROAD KEY-Water Level BROAD KEY-Salinity BROAD KEY-TDS BROAD KEY-Air Temp BROAD KEY-Water Temp in F BROAD KEY-Air Temp in F
26-Mar-2017 02:40 23.52 3,023.01 3,024.02 3.27 1.52 1,414.01 23.57 74.34 74.43
24-Mar-2017 00:55 23.50 3,091.65 3,092.68 3.85 1.57 1,466.13 19.19 74.30 66.54
23-Mar-2017 12:45 23.54 3,014.75 3,015.77 3.38 1.53 1,429.70 23.56 74.37 74.41
23-Mar-2017 12:40 23.50 3,030.20 3,031.20 3.40 1.54 1,435.47 23.57 74.30 74.43
23-Mar-2017 12:30 23.46 3,033.46 3,034.45 3.40 1.55 1,444.94 23.64 74.23 74.55
23-Mar-2017 12:05 23.25 3,049.45 3,050.33 3.36 1.55 1,442.50 24.67 73.85 76.41
23-Mar-2017 12:00 23.18 3,071.59 3,072.44 3.33 1.56 1,452.43 24.60 73.72 76.28
23-Mar-2017 11:55 23.14 3,072.90 3,073.73 3.31 1.56 1,452.34 24.73 73.65 76.51
23-Mar-2017 11:50 23.12 3,072.73 3,073.54 3.32 1.55 1,448.58 23.91 73.62 75.04
23-Mar-2017 11:45 23.09 3,063.23 3,064.02 3.35 1.55 1,445.55 22.96 73.56 73.33
23-Mar-2017 11:40 23.07 3,056.71 3,057.49 3.38 1.55 1,444.47 22.58 73.53 72.64
23-Mar-2017 11:25 23.01 3,102.41 3,103.16 3.45 1.57 1,462.27 22.18 73.42 71.92
23-Mar-2017 11:15 22.95 3,088.42 3,089.13 3.50 1.56 1,456.65 21.97 73.31 71.55
23-Mar-2017 11:05 22.90 3,089.43 3,090.10 3.54 1.56 1,456.22 21.69 73.22 71.04
23-Mar-2017 10:55 22.88 3,092.04 3,092.69 3.54 1.56 1,456.18 21.62 73.18 70.92
23-Mar-2017 10:45 22.84 3,084.79 3,085.41 3.55 1.56 1,450.67 21.47 73.11 70.65
23-Mar-2017 01:25 23.07 3,126.44 3,127.24 3.20 1.59 1,482.54 19.83 73.53 67.69
23-Mar-2017 00:45 23.14 3,107.89 3,108.72 3.11 1.58 1,474.69 19.93 73.65 67.87
23-Mar-2017 00:30 23.17 3,101.35 3,102.21 3.11 1.58 1,471.92 19.86 73.71 67.75
22-Mar-2017 18:10 23.84 3,091.50 3,092.66 4.09 1.58 1,475.25 26.33 74.91 79.39
22-Mar-2017 18:05 23.84 3,101.11 3,102.27 4.08 1.58 1,473.43 26.39 74.91 79.50
22-Mar-2017 16:35 23.96 3,100.80 3,101.99 3.92 1.58 1,476.53 26.18 75.13 79.12
22-Mar-2017 16:30 23.96 3,088.25 3,089.44 3.89 1.58 1,470.98 26.27 75.13 79.29
22-Mar-2017 16:25 23.95 3,093.04 3,094.23 3.87 1.58 1,472.72 26.19 75.11 79.14
22-Mar-2017 16:20 23.95 3,075.51 3,076.70 3.86 1.57 1,465.02 25.95 75.11 78.71
22-Mar-2017 16:15 23.96 3,091.58 3,092.77 3.87 1.58 1,471.02 25.53 75.13 77.95
22-Mar-2017 16:00 23.97 3,084.11 3,085.30 3.83 1.57 1,467.10 25.38 75.15 77.68
22-Mar-2017 15:20 23.75 3,066.92 3,068.04 3.70 1.56 1,454.30 24.70 74.75 76.46
22-Mar-2017 15:10 23.53 3,068.24 3,069.27 3.69 1.56 1,456.63 24.62 74.35 76.32
22-Mar-2017 15:05 23.55 3,075.05 3,076.09 3.67 1.56 1,458.19 24.41 74.39 75.94
22-Mar-2017 14:50 23.49 3,069.56 3,070.58 3.64 1.56 1,457.83 24.55 74.28 76.19
22-Mar-2017 14:45 23.50 3,056.70 3,057.72 3.66 1.56 1,455.85 24.74 74.30 76.53
22-Mar-2017 14:40 23.50 3,075.28 3,076.30 3.65 1.56 1,455.01 24.59 74.30 76.26
22-Mar-2017 14:35 23.46 3,076.26 3,077.26 3.64 1.56 1,455.35 24.53 74.23 76.15
22-Mar-2017 14:25 23.43 3,086.95 3,087.94 3.65 1.57 1,459.97 24.51 74.17 76.12
22-Mar-2017 14:20 23.50 3,079.13 3,080.15 3.59 1.56 1,458.09 24.55 74.30 76.19
22-Mar-2017 14:15 23.47 3,068.31 3,069.32 3.51 1.56 1,449.85 24.68 74.25 76.42
22-Mar-2017 14:10 23.40 3,068.32 3,069.29 3.49 1.55 1,449.89 24.57 74.12 76.23
22-Mar-2017 13:50 23.08 3,074.83 3,075.62 3.48 1.55 1,448.13 23.76 73.54 74.77
22-Mar-2017 09:40 21.64 3,035.60 3,034.95 3.50 1.53 1,432.10 20.77 70.95 69.39
22-Mar-2017 09:30 21.62 3,043.30 3,042.62 3.50 1.53 1,435.72 20.69 70.92 69.24
22-Mar-2017 09:25 21.57 3,040.14 3,039.40 3.54 1.53 1,434.38 20.74 70.83 69.33
22-Mar-2017 09:15 21.57 3,044.33 3,043.58 3.57 1.52 1,436.15 20.71 70.83 69.28
22-Mar-2017 09:10 21.55 3,039.56 3,038.79 3.60 1.53 1,432.06 20.76 70.79 69.37
22-Mar-2017 08:50 21.56 3,049.08 3,048.33 3.66 1.53 1,434.20 20.70 70.81 69.26
22-Mar-2017 08:35 21.60 3,041.04 3,040.34 3.69 1.53 1,434.89 20.67 70.88 69.21
22-Mar-2017 08:20 21.60 3,053.51 3,052.80 3.73 1.53 1,437.91 20.68 70.88 69.22
22-Mar-2017 08:00 21.58 3,043.47 3,042.73 3.82 1.53 1,433.69 20.57 70.84 69.03
22-Mar-2017 07:45 21.61 3,051.72 3,051.02 3.87 1.53 1,436.54 20.35 70.90 68.63
22-Mar-2017 07:40 21.66 3,052.42 3,051.79 3.89 1.53 1,435.96 20.30 70.99 68.54
22-Mar-2017 07:30 21.70 3,048.02 3,047.45 3.93 1.53 1,433.81 20.24 71.06 68.43
22-Mar-2017 07:25 21.70 3,049.76 3,049.19 3.93 1.53 1,436.73 20.21 71.06 68.38
22-Mar-2017 07:20 21.71 3,049.48 3,048.93 3.93 1.53 1,434.36 20.12 71.08 68.22
22-Mar-2017 07:10 21.73 3,058.99 3,058.46 3.95 1.54 1,439.08 20.17 71.11 68.31
22-Mar-2017 07:05 21.80 3,052.34 3,051.90 3.97 1.54 1,437.54 20.34 71.24 68.61
22-Mar-2017 07:00 21.81 3,043.33 3,042.90 3.99 1.53 1,431.57 20.14 71.26 68.25
22-Mar-2017 06:55 21.79 3,049.95 3,049.50 3.99 1.53 1,434.72 20.10 71.22 68.18
22-Mar-2017 06:50 21.79 3,050.66 3,050.21 4.00 1.53 1,436.16 20.13 71.22 68.23
22-Mar-2017 06:25 21.81 3,063.26 3,062.84 4.06 1.54 1,437.85 19.88 71.26 67.78
22-Mar-2017 06:20 21.83 3,053.53 3,053.14 4.05 1.53 1,433.63 20.06 71.29 68.11
22-Mar-2017 01:45 22.16 3,098.19 3,098.17 3.47 1.57 1,463.55 20.05 71.89 68.09
22-Mar-2017 01:40 22.22 3,102.31 3,102.36 3.45 1.57 1,464.35 19.97 72.00 67.95
22-Mar-2017 00:40 22.35 3,081.12 3,081.30 3.28 1.55 1,448.16 21.39 72.23 70.50
21-Mar-2017 08:25 21.39 3,114.26 3,113.24 3.54 1.56 1,464.20 20.83 70.50 69.49
21-Mar-2017 08:10 21.41 3,115.25 3,114.26 3.56 1.57 1,468.63 20.81 70.54 69.46
21-Mar-2017 08:05 21.43 3,097.17 3,096.21 3.56 1.56 1,457.94 20.80 70.57 69.44
21-Mar-2017 07:35 21.57 3,118.61 3,117.85 3.67 1.57 1,465.21 19.84 70.83 67.71
21-Mar-2017 07:30 21.58 3,110.06 3,109.31 3.69 1.56 1,461.34 19.80 70.84 67.64
21-Mar-2017 06:05 21.74 3,115.56 3,115.03 3.92 1.57 1,470.96 20.08 71.13 68.14
20-Mar-2017 02:35 21.81 3,079.90 3,079.47 3.95 1.55 1,454.39 22.14 71.26 71.85
20-Mar-2017 01:35 21.72 3,091.73 3,091.18 3.77 1.56 1,460.24 22.16 71.10 71.89
20-Mar-2017 01:25 21.70 3,087.16 3,086.59 3.72 1.55 1,457.82 21.99 71.06 71.58
20-Mar-2017 01:20 21.68 3,082.28 3,081.68 3.70 1.55 1,458.14 22.03 71.02 71.65
20-Mar-2017 01:10 21.68 3,081.38 3,080.78 3.68 1.55 1,457.42 21.89 71.02 71.40
20-Mar-2017 01:05 21.68 3,076.31 3,075.71 3.65 1.55 1,456.96 21.86 71.02 71.35
20-Mar-2017 00:55 21.69 3,098.58 3,097.99 3.62 1.56 1,460.62 21.80 71.04 71.24
20-Mar-2017 00:50 21.69 3,079.13 3,078.54 3.60 1.55 1,454.61 21.86 71.04 71.35
20-Mar-2017 00:45 21.68 3,088.14 3,087.54 3.60 1.56 1,459.01 21.87 71.02 71.37
20-Mar-2017 00:40 21.68 3,096.33 3,095.73 3.59 1.56 1,461.39 21.91 71.02 71.44
20-Mar-2017 00:35 21.69 3,094.50 3,093.90 3.55 1.56 1,459.58 21.93 71.04 71.47
20-Mar-2017 00:20 21.70 3,100.49 3,099.91 3.40 1.56 1,463.43 22.18 71.06 71.92
20-Mar-2017 00:10 21.73 3,100.01 3,099.48 3.42 1.56 1,464.96 21.40 71.11 70.52
19-Mar-2017 19:35 22.88 3,108.72 3,109.38 3.37 1.57 1,463.64 23.70 73.18 74.66
19-Mar-2017 19:15 22.95 3,095.29 3,095.99 3.41 1.57 1,460.03 24.27 73.31 75.69
19-Mar-2017 19:10 22.95 3,118.13 3,118.84 3.42 1.58 1,470.29 24.39 73.31 75.90
19-Mar-2017 19:05 22.95 3,094.66 3,095.37 3.42 1.57 1,457.99 24.51 73.31 76.12
19-Mar-2017 18:55 22.95 3,103.74 3,104.45 3.45 1.57 1,464.24 24.49 73.31 76.08
19-Mar-2017 18:50 22.92 3,095.68 3,096.36 3.50 1.56 1,461.40 24.68 73.26 76.42
19-Mar-2017 18:40 22.92 3,109.22 3,109.90 3.52 1.57 1,467.49 24.92 73.26 76.86
19-Mar-2017 18:30 22.88 3,092.79 3,093.45 3.52 1.56 1,459.77 26.10 73.18 78.98
19-Mar-2017 18:25 22.87 3,086.68 3,087.32 3.55 1.56 1,458.02 25.86 73.17 78.55
19-Mar-2017 18:20 22.87 3,092.90 3,093.55 3.58 1.56 1,457.95 25.90 73.17 78.62
19-Mar-2017 18:15 22.86 3,097.19 3,097.83 3.56 1.56 1,457.80 26.18 73.15 79.12
19-Mar-2017 18:05 22.86 3,097.99 3,098.63 3.59 1.56 1,459.07 26.23 73.15 79.21
19-Mar-2017 18:00 22.85 3,089.63 3,090.27 3.60 1.56 1,455.66 26.16 73.13 79.09
19-Mar-2017 17:55 22.84 3,112.09 3,112.72 3.64 1.57 1,469.05 25.96 73.11 78.73
19-Mar-2017 17:45 22.84 3,106.84 3,107.46 3.66 1.57 1,464.17 25.92 73.11 78.66
19-Mar-2017 17:40 22.79 3,092.12 3,092.71 3.68 1.56 1,458.77 25.89 73.02 78.60
19-Mar-2017 17:30 22.80 3,096.87 3,097.46 3.70 1.56 1,455.66 25.79 73.04 78.42
19-Mar-2017 17:20 22.81 3,096.19 3,096.79 3.74 1.56 1,459.51 25.50 73.06 77.90
19-Mar-2017 16:50 22.77 3,089.09 3,089.66 3.88 1.56 1,454.89 25.36 72.99 77.65
19-Mar-2017 16:45 22.76 3,088.17 3,088.73 3.88 1.55 1,452.40 25.21 72.97 77.38
19-Mar-2017 16:40 22.76 3,081.87 3,082.42 3.92 1.56 1,452.90 25.04 72.97 77.07
19-Mar-2017 16:15 22.68 3,087.29 3,087.78 3.98 1.55 1,450.97 25.91 72.82 78.64
19-Mar-2017 15:40 22.57 3,078.88 3,079.28 4.05 1.55 1,447.04 25.30 72.63 77.54
19-Mar-2017 15:35 22.54 3,028.94 3,029.30 4.06 1.52 1,425.47 25.22 72.57 77.40
19-Mar-2017 15:30 22.52 3,057.42 3,057.77 4.08 1.53 1,435.74 25.05 72.54 77.09
19-Mar-2017 15:25 22.49 3,064.43 3,064.75 4.09 1.54 1,438.16 24.93 72.48 76.87
19-Mar-2017 15:20 22.47 3,074.20 3,074.50 4.09 1.54 1,446.82 24.84 72.45 76.71
19-Mar-2017 15:15 22.44 3,072.29 3,072.57 4.09 1.54 1,446.42 24.74 72.39 76.53
19-Mar-2017 15:10 22.41 3,074.30 3,074.55 4.06 1.54 1,444.47 24.94 72.34 76.89
19-Mar-2017 15:00 22.36 3,088.72 3,088.91 4.00 1.55 1,446.18 24.33 72.25 75.79
19-Mar-2017 14:40 22.26 3,063.49 3,063.59 4.00 1.54 1,445.51 23.78 72.07 74.80
19-Mar-2017 14:35 22.23 3,076.94 3,077.01 4.00 1.55 1,449.60 23.77 72.01 74.79
19-Mar-2017 14:25 22.18 3,064.15 3,064.17 4.01 1.54 1,443.97 23.65 71.92 74.57
19-Mar-2017 14:20 22.15 3,063.49 3,063.47 4.00 1.54 1,446.42 23.54 71.87 74.37
19-Mar-2017 14:15 22.13 3,077.02 3,076.98 3.97 1.54 1,443.89 23.38 71.83 74.08
19-Mar-2017 13:55 21.99 3,064.04 3,063.84 3.94 1.54 1,443.07 22.71 71.58 72.88
19-Mar-2017 13:50 21.96 3,071.26 3,071.02 3.94 1.55 1,451.69 22.62 71.53 72.72
19-Mar-2017 08:25 20.78 3,052.96 3,050.95 3.23 1.56 1,486.60 18.49 69.40 65.28
19-Mar-2017 08:20 20.79 3,063.15 3,061.15 3.23 1.56 1,478.05 18.53 69.42 65.35
19-Mar-2017 03:50 21.56 3,047.03 3,046.27 3.97 1.54 1,452.28 19.61 70.81 67.30
19-Mar-2017 03:45 21.57 3,053.56 3,052.82 3.97 1.54 1,456.71 19.76 70.83 67.57
19-Mar-2017 03:35 21.58 3,044.76 3,044.03 3.97 1.54 1,453.84 19.85 70.84 67.73
19-Mar-2017 03:30 21.58 3,049.08 3,048.35 3.97 1.54 1,455.87 19.85 70.84 67.73
19-Mar-2017 03:25 21.57 3,057.14 3,056.40 3.96 1.55 1,458.12 19.72 70.83 67.50
19-Mar-2017 03:20 21.55 3,045.58 3,044.81 3.97 1.54 1,457.40 19.74 70.79 67.53
19-Mar-2017 03:05 21.56 3,046.87 3,046.11 4.01 1.54 1,454.24 19.42 70.81 66.96
19-Mar-2017 02:55 21.56 3,075.22 3,074.45 3.99 1.56 1,468.56 19.48 70.81 67.06
19-Mar-2017 02:50 21.55 3,058.88 3,058.11 3.98 1.55 1,467.47 19.60 70.79 67.28
19-Mar-2017 02:45 21.56 3,040.25 3,039.49 3.98 1.55 1,465.09 19.66 70.81 67.39
19-Mar-2017 02:40 21.56 3,051.94 3,051.18 3.96 1.55 1,466.70 19.68 70.81 67.42
19-Mar-2017 02:35 21.56 3,058.39 3,057.63 3.95 1.55 1,470.38 19.79 70.81 67.62
19-Mar-2017 02:30 21.55 3,051.68 3,050.90 3.96 1.55 1,469.95 19.70 70.79 67.46
19-Mar-2017 02:15 21.53 3,057.47 3,056.67 3.95 1.55 1,471.47 19.64 70.75 67.35
19-Mar-2017 02:10 21.52 3,054.00 3,053.18 3.94 1.55 1,470.38 19.65 70.74 67.37
19-Mar-2017 02:05 21.50 3,064.21 3,063.36 3.94 1.55 1,469.54 19.57 70.70 67.23
19-Mar-2017 01:55 21.50 3,084.16 3,083.31 3.92 1.56 1,473.77 19.92 70.70 67.86
19-Mar-2017 01:10 21.43 3,066.54 3,065.59 3.78 1.55 1,468.54 19.96 70.57 67.93
19-Mar-2017 00:45 21.36 3,072.90 3,071.83 3.73 1.56 1,476.16 19.99 70.45 67.98
19-Mar-2017 00:30 21.33 3,072.56 3,071.45 3.71 1.56 1,477.28 20.28 70.39 68.50
19-Mar-2017 00:25 21.32 3,048.59 3,047.48 3.72 1.56 1,479.29 19.77 70.38 67.59
19-Mar-2017 00:20 21.30 3,059.09 3,057.95 3.71 1.56 1,475.96 19.80 70.34 67.64
19-Mar-2017 00:15 21.29 3,065.64 3,064.48 3.70 1.56 1,482.22 19.94 70.32 67.89
19-Mar-2017 00:10 21.28 3,057.58 3,056.41 3.68 1.56 1,475.43 19.90 70.30 67.82
18-Mar-2017 23:55 21.29 3,055.96 3,054.81 3.63 1.56 1,480.49 20.42 70.32 68.76
18-Mar-2017 23:50 21.30 3,052.35 3,051.21 3.62 1.56 1,476.88 20.49 70.34 68.88
18-Mar-2017 23:45 21.30 3,056.66 3,055.52 3.59 1.56 1,482.56 20.51 70.34 68.92
18-Mar-2017 23:40 21.30 3,048.91 3,047.78 3.58 1.56 1,481.01 20.57 70.34 69.03
18-Mar-2017 23:25 21.29 3,054.83 3,053.68 3.49 1.56 1,478.04 21.11 70.32 70.00
18-Mar-2017 23:00 21.32 3,056.44 3,055.34 3.42 1.55 1,474.33 21.30 70.38 70.34
18-Mar-2017 22:55 21.34 3,045.04 3,043.96 3.37 1.55 1,464.26 21.34 70.41 70.41
18-Mar-2017 22:40 21.31 3,053.96 3,052.83 3.34 1.55 1,471.81 21.32 70.36 70.38
18-Mar-2017 22:35 21.30 3,061.20 3,060.05 3.32 1.56 1,477.94 21.32 70.34 70.38
18-Mar-2017 22:25 21.34 3,059.53 3,058.44 3.29 1.56 1,471.92 21.50 70.41 70.70
18-Mar-2017 22:05 21.39 3,060.83 3,059.82 3.21 1.55 1,466.15 21.51 70.50 70.72
18-Mar-2017 21:50 21.45 3,064.64 3,063.72 3.17 1.55 1,468.99 21.56 70.61 70.81
18-Mar-2017 21:40 21.47 3,070.42 3,069.53 3.12 1.55 1,466.94 21.59 70.65 70.86
18-Mar-2017 16:40 22.22 3,040.38 3,040.43 3.67 1.54 1,448.25 22.40 72.00 72.32
18-Mar-2017 15:05 22.02 3,034.95 3,034.79 3.99 1.53 1,446.16 22.50 71.64 72.50
18-Mar-2017 13:20 20.92 3,070.72 3,068.94 3.89 1.58 1,506.39 22.86 69.66 73.15
18-Mar-2017 13:15 20.89 3,063.61 3,061.78 3.88 1.58 1,507.08 22.74 69.60 72.93
18-Mar-2017 12:25 20.73 3,090.65 3,088.52 3.76 1.60 1,541.49 22.48 69.31 72.46
18-Mar-2017 12:15 20.70 3,090.95 3,088.75 3.77 1.60 1,539.10 22.31 69.26 72.16
18-Mar-2017 12:05 20.72 3,076.13 3,073.99 3.71 1.60 1,542.50 22.46 69.30 72.43
18-Mar-2017 11:40 20.58 3,074.33 3,071.92 3.63 1.60 1,547.73 22.48 69.04 72.46
18-Mar-2017 11:35 20.54 3,088.42 3,085.92 3.61 1.60 1,550.01 22.37 68.97 72.27
18-Mar-2017 11:10 20.35 3,089.17 3,086.30 3.44 1.61 1,556.36 22.59 68.63 72.66
18-Mar-2017 10:35 20.06 3,080.73 3,077.23 3.25 1.62 1,576.59 20.79 68.11 69.42
18-Mar-2017 10:20 19.92 3,105.29 3,101.45 3.34 1.64 1,593.95 20.10 67.86 68.18
18-Mar-2017 10:10 19.93 3,102.60 3,098.78 3.31 1.64 1,598.41 20.04 67.87 68.07
18-Mar-2017 10:05 19.92 3,105.33 3,101.48 3.29 1.66 1,624.79 19.85 67.86 67.73
18-Mar-2017 10:00 19.93 3,109.02 3,105.19 3.29 1.67 1,631.24 19.83 67.87 67.69
18-Mar-2017 09:50 19.94 3,101.80 3,097.99 3.25 1.67 1,630.38 19.86 67.89 67.75
18-Mar-2017 09:45 19.92 3,112.90 3,109.04 3.23 1.66 1,629.87 19.84 67.86 67.71
18-Mar-2017 09:40 19.93 3,106.59 3,102.75 3.21 1.65 1,616.28 19.75 67.87 67.55
18-Mar-2017 09:25 19.94 3,111.25 3,107.43 3.24 1.65 1,609.60 19.65 67.89 67.37
18-Mar-2017 09:15 19.95 3,102.84 3,099.06 3.23 1.65 1,604.73 19.78 67.91 67.60
18-Mar-2017 09:05 19.96 3,109.34 3,105.58 3.21 1.65 1,603.98 20.25 67.93 68.45
18-Mar-2017 08:55 19.95 3,103.76 3,099.98 3.16 1.64 1,597.86 21.18 67.91 70.12
18-Mar-2017 08:50 19.97 3,108.11 3,104.38 3.15 1.64 1,597.09 21.19 67.95 70.14
18-Mar-2017 08:45 19.98 3,110.29 3,106.58 3.13 1.64 1,586.21 21.15 67.96 70.07
18-Mar-2017 08:30 20.03 3,110.14 3,106.54 3.13 1.63 1,585.91 21.12 68.05 70.02
18-Mar-2017 08:25 20.03 3,099.71 3,096.13 3.11 1.63 1,575.28 21.06 68.05 69.91
18-Mar-2017 08:10 20.07 3,112.10 3,108.59 3.10 1.63 1,572.89 21.08 68.13 69.94
18-Mar-2017 08:05 20.07 3,109.99 3,106.49 3.11 1.62 1,566.96 21.12 68.13 70.02
18-Mar-2017 06:45 20.30 3,102.86 3,099.87 3.24 1.62 1,565.18 20.95 68.54 69.71
18-Mar-2017 06:35 20.33 3,099.80 3,096.86 3.27 1.62 1,568.85 20.95 68.59 69.71
18-Mar-2017 06:25 20.35 3,102.10 3,099.21 3.31 1.62 1,572.29 20.97 68.63 69.75
18-Mar-2017 06:20 20.35 3,098.09 3,095.21 3.33 1.62 1,572.58 20.98 68.63 69.76
18-Mar-2017 06:15 20.35 3,100.37 3,097.48 3.34 1.63 1,571.78 20.98 68.63 69.76
18-Mar-2017 06:05 20.34 3,098.02 3,095.10 3.37 1.63 1,575.81 21.05 68.61 69.89
18-Mar-2017 06:00 20.33 3,098.66 3,095.73 3.38 1.63 1,579.75 21.06 68.59 69.91
18-Mar-2017 05:55 20.30 3,097.55 3,094.56 3.39 1.63 1,585.58 21.08 68.54 69.94
18-Mar-2017 04:25 20.35 3,098.52 3,095.62 3.70 1.61 1,556.88 21.02 68.63 69.84
18-Mar-2017 02:30 20.40 3,100.58 3,097.79 3.96 1.63 1,586.14 20.92 68.72 69.66
17-Mar-2017 03:20 20.18 3,084.03 3,080.79 3.80 1.66 1,630.07 18.19 68.32 64.74
17-Mar-2017 03:05 20.13 3,091.00 3,087.65 3.84 1.67 1,635.91 18.21 68.23 64.78
17-Mar-2017 03:00 20.10 3,089.16 3,085.75 3.85 1.67 1,641.79 18.54 68.18 65.37
13-Mar-2017 06:45 24.37 2,937.06 2,938.26 3.53 1.47 1,380.67 23.70 75.87 74.66
13-Mar-2017 06:40 24.35 2,935.72 2,936.91 3.51 1.48 1,383.78 23.65 75.83 74.57
13-Mar-2017 06:30 24.38 2,943.42 2,944.62 3.46 1.49 1,387.85 23.57 75.88 74.43
13-Mar-2017 05:10 24.39 2,920.51 2,921.70 3.20 1.47 1,380.87 22.12 75.90 71.82
13-Mar-2017 05:05 24.39 2,912.05 2,913.24 3.21 1.47 1,375.61 22.10 75.90 71.78
13-Mar-2017 04:55 24.39 2,936.46 2,937.66 3.20 1.47 1,385.82 22.19 75.90 71.94
13-Mar-2017 04:50 24.39 2,924.35 2,925.54 3.20 1.48 1,386.51 22.22 75.90 72.00
13-Mar-2017 04:45 24.39 2,917.34 2,918.53 3.19 1.47 1,380.03 22.15 75.90 71.87
13-Mar-2017 04:40 24.39 2,941.62 2,942.82 3.18 1.47 1,386.11 22.31 75.90 72.16
13-Mar-2017 04:30 24.40 2,942.51 2,943.71 3.20 1.48 1,386.51 22.51 75.92 72.52
13-Mar-2017 04:25 24.39 2,933.03 2,934.23 3.20 1.48 1,383.19 22.45 75.90 72.41
13-Mar-2017 04:20 24.39 2,952.51 2,953.72 3.21 1.48 1,391.52 22.41 75.90 72.34
13-Mar-2017 04:15 24.40 2,945.66 2,946.87 3.23 1.48 1,389.36 22.40 75.92 72.32
13-Mar-2017 04:05 24.40 2,938.33 2,939.53 3.25 1.48 1,386.54 22.51 75.92 72.52
13-Mar-2017 03:35 24.38 2,933.93 2,935.12 3.33 1.48 1,382.37 22.41 75.88 72.34
13-Mar-2017 03:25 24.39 2,940.20 2,941.39 3.36 1.48 1,387.30 22.47 75.90 72.45
13-Mar-2017 03:20 24.39 2,948.97 2,950.17 3.38 1.49 1,389.34 22.48 75.90 72.46
13-Mar-2017 03:15 24.40 2,949.27 2,950.48 3.40 1.49 1,388.79 22.48 75.92 72.46
12-Mar-2017 23:35 24.70 2,917.53 2,918.72 4.46 1.47 1,380.78 22.60 76.46 72.68
12-Mar-2017 10:35 23.98 2,924.34 2,925.47 4.34 1.47 1,380.48 21.96 75.16 71.53
12-Mar-2017 05:55 24.22 2,938.78 2,939.97 3.41 1.48 1,384.98 24.02 75.60 75.24
12-Mar-2017 00:25 24.36 2,911.77 2,912.96 3.68 1.48 1,384.02 24.15 75.85 75.47
11-Mar-2017 21:55 24.51 2,976.62 2,977.84 4.35 1.51 1,408.25 24.12 76.12 75.42
11-Mar-2017 18:20 25.29 2,983.72 2,984.84 3.89 1.52 1,426.85 24.90 77.52 76.82
11-Mar-2017 18:15 25.41 2,956.97 2,958.03 3.86 1.51 1,415.36 24.93 77.74 76.87
11-Mar-2017 18:10 25.47 2,952.25 2,953.29 3.84 1.51 1,413.79 25.01 77.85 77.02
11-Mar-2017 18:05 25.46 2,958.20 2,959.26 3.81 1.51 1,413.26 25.01 77.83 77.02
11-Mar-2017 17:50 25.42 2,963.40 2,964.46 3.72 1.51 1,414.94 25.37 77.76 77.67
11-Mar-2017 17:45 25.39 2,966.50 2,967.58 3.68 1.51 1,418.45 25.39 77.70 77.70
11-Mar-2017 17:40 25.33 2,968.59 2,969.68 3.63 1.51 1,415.91 25.41 77.59 77.74
11-Mar-2017 17:30 25.20 2,989.09 2,990.23 3.53 1.53 1,430.48 25.62 77.36 78.12
11-Mar-2017 02:00 23.65 2,903.95 2,904.98 2.89 1.46 1,379.50 22.14 74.57 71.85
11-Mar-2017 01:30 23.70 2,926.60 2,927.65 2.96 1.47 1,384.20 21.99 74.66 71.58
11-Mar-2017 01:20 23.72 2,916.41 2,917.46 2.98 1.47 1,378.41 22.06 74.70 71.71
11-Mar-2017 01:10 23.74 2,909.95 2,911.01 3.00 1.47 1,380.29 22.07 74.73 71.73
11-Mar-2017 00:40 23.84 2,910.19 2,911.28 3.08 1.47 1,379.98 22.16 74.91 71.89
11-Mar-2017 00:20 23.90 2,905.02 2,906.12 3.15 1.47 1,372.98 22.27 75.02 72.09
11-Mar-2017 00:15 23.91 2,912.25 2,913.36 3.16 1.46 1,376.70 22.28 75.04 72.10
11-Mar-2017 00:10 23.93 2,909.56 2,910.67 3.18 1.47 1,381.23 22.29 75.07 72.12
10-Mar-2017 22:50 24.05 2,891.78 2,892.91 3.71 1.46 1,375.85 21.29 75.29 70.32
10-Mar-2017 15:35 24.53 2,867.04 2,868.21 3.20 1.44 1,352.52 26.47 76.15 79.65
10-Mar-2017 15:20 24.46 2,880.89 2,882.06 3.15 1.45 1,359.86 26.42 76.03 79.56
10-Mar-2017 15:05 24.45 2,868.17 2,869.34 3.07 1.45 1,356.37 26.66 76.01 79.99
10-Mar-2017 14:50 24.46 2,876.08 2,877.26 2.97 1.45 1,352.06 26.48 76.03 79.66
10-Mar-2017 14:40 24.47 2,877.35 2,878.53 2.94 1.45 1,360.37 26.38 76.05 79.48
10-Mar-2017 14:30 24.48 2,882.52 2,883.70 2.93 1.45 1,358.36 26.39 76.06 79.50
10-Mar-2017 14:25 24.47 2,877.35 2,878.53 2.91 1.45 1,360.10 26.42 76.05 79.56
10-Mar-2017 14:20 24.46 2,875.50 2,876.68 2.91 1.45 1,358.29 26.40 76.03 79.52
10-Mar-2017 14:15 24.45 2,874.73 2,875.91 2.91 1.44 1,357.95 26.22 76.01 79.20
10-Mar-2017 14:10 24.44 2,868.03 2,869.20 2.93 1.44 1,353.71 26.00 75.99 78.80
10-Mar-2017 14:05 24.42 2,867.57 2,868.74 2.94 1.44 1,354.55 25.79 75.96 78.42
10-Mar-2017 13:55 24.39 2,876.82 2,877.99 2.95 1.45 1,355.38 25.66 75.90 78.19
10-Mar-2017 13:45 24.34 2,872.61 2,873.78 2.95 1.45 1,355.80 25.55 75.81 77.99
10-Mar-2017 13:35 24.26 2,871.01 2,872.17 2.97 1.45 1,356.72 25.48 75.67 77.86
10-Mar-2017 13:30 24.19 2,871.47 2,872.62 3.02 1.44 1,357.65 25.19 75.54 77.34
10-Mar-2017 13:25 24.15 2,869.75 2,870.89 3.05 1.44 1,355.99 25.16 75.47 77.29
10-Mar-2017 13:20 24.12 2,861.33 2,862.46 3.06 1.44 1,348.34 25.21 75.42 77.38
10-Mar-2017 13:10 24.08 2,859.98 2,861.10 3.08 1.44 1,351.44 25.40 75.34 77.72
10-Mar-2017 13:00 24.03 2,863.01 2,864.13 3.10 1.44 1,352.40 25.55 75.25 77.99
10-Mar-2017 12:55 24.02 2,860.49 2,861.61 3.06 1.44 1,350.79 25.48 75.24 77.86
10-Mar-2017 12:50 24.01 2,861.36 2,862.47 2.97 1.44 1,354.44 25.18 75.22 77.32
10-Mar-2017 12:45 23.98 2,866.61 2,867.72 2.98 1.44 1,351.79 25.00 75.16 77.00
10-Mar-2017 12:40 23.96 2,862.15 2,863.25 3.00 1.44 1,358.68 24.82 75.13 76.68
10-Mar-2017 12:35 23.92 2,850.88 2,851.97 3.03 1.44 1,355.40 24.73 75.06 76.51
10-Mar-2017 12:30 23.89 2,847.26 2,848.34 3.05 1.43 1,352.73 24.59 75.00 76.26
10-Mar-2017 12:25 23.84 2,864.01 2,865.08 3.08 1.44 1,356.90 24.43 74.91 75.97
10-Mar-2017 12:20 23.76 2,869.67 2,870.72 3.14 1.45 1,365.66 24.25 74.77 75.65
10-Mar-2017 12:10 23.72 2,880.23 2,881.27 3.17 1.45 1,365.75 24.09 74.70 75.36
10-Mar-2017 12:05 23.67 2,881.77 2,882.79 3.20 1.45 1,360.03 23.88 74.61 74.98
10-Mar-2017 12:00 23.63 2,887.19 2,888.21 3.22 1.45 1,364.81 23.82 74.53 74.88
10-Mar-2017 11:55 23.58 2,889.86 2,890.86 3.25 1.45 1,362.95 23.69 74.44 74.64
10-Mar-2017 11:50 23.54 2,880.78 2,881.75 3.27 1.45 1,363.91 23.63 74.37 74.53
10-Mar-2017 11:45 23.46 2,873.85 2,874.79 3.32 1.45 1,365.05 23.57 74.23 74.43
10-Mar-2017 11:40 23.41 2,866.16 2,867.07 3.33 1.45 1,367.23 23.60 74.14 74.48
10-Mar-2017 11:35 23.37 2,869.77 2,870.66 3.34 1.45 1,365.29 23.59 74.07 74.46
10-Mar-2017 11:30 23.34 2,874.13 2,875.01 3.36 1.45 1,364.11 23.55 74.01 74.39
10-Mar-2017 11:25 23.30 2,862.57 2,863.42 3.38 1.44 1,362.92 23.48 73.94 74.26
10-Mar-2017 11:10 23.23 2,869.80 2,870.63 3.42 1.45 1,369.88 23.37 73.81 74.07
10-Mar-2017 11:05 23.19 2,866.59 2,867.39 3.44 1.44 1,366.54 23.34 73.74 74.01
10-Mar-2017 10:55 23.14 2,873.67 2,874.44 3.48 1.45 1,368.20 23.32 73.65 73.98
10-Mar-2017 10:50 23.11 2,884.31 2,885.07 3.58 1.45 1,364.78 23.16 73.60 73.69
10-Mar-2017 10:45 23.09 2,882.23 2,882.97 3.61 1.45 1,369.84 23.09 73.56 73.56
10-Mar-2017 10:40 23.08 2,872.77 2,873.50 3.63 1.45 1,368.37 23.05 73.54 73.49
10-Mar-2017 10:35 23.06 2,881.84 2,882.56 3.66 1.45 1,368.98 23.25 73.51 73.85
10-Mar-2017 10:25 23.03 2,875.52 2,876.23 3.68 1.45 1,371.03 22.99 73.45 73.38
10-Mar-2017 10:15 23.04 2,875.58 2,876.30 3.69 1.45 1,367.62 22.78 73.47 73.00
10-Mar-2017 10:10 23.05 2,872.38 2,873.10 3.64 1.45 1,365.65 22.88 73.49 73.18
10-Mar-2017 10:05 23.04 2,869.42 2,870.13 3.70 1.45 1,372.16 22.75 73.47 72.95
10-Mar-2017 10:00 23.05 2,876.68 2,877.41 3.75 1.45 1,369.40 22.60 73.49 72.68
10-Mar-2017 08:15 22.60 2,848.83 2,849.23 4.06 1.45 1,372.23 21.58 72.68 70.84
10-Mar-2017 07:50 22.63 2,875.81 2,876.23 4.04 1.45 1,379.31 21.97 72.73 71.55
10-Mar-2017 07:10 22.71 2,869.26 2,869.74 3.95 1.46 1,382.60 21.84 72.88 71.31
10-Mar-2017 07:05 22.71 2,880.77 2,881.26 3.96 1.45 1,377.64 21.59 72.88 70.86
10-Mar-2017 07:00 22.71 2,881.67 2,882.15 3.97 1.46 1,375.96 21.58 72.88 70.84
10-Mar-2017 06:55 22.72 2,878.62 2,879.11 3.96 1.46 1,381.33 21.47 72.90 70.65
10-Mar-2017 06:50 22.71 2,881.95 2,882.43 3.96 1.46 1,377.92 21.50 72.88 70.70
10-Mar-2017 06:45 22.71 2,873.04 2,873.52 3.96 1.45 1,376.99 21.48 72.88 70.66
10-Mar-2017 06:35 22.71 2,874.00 2,874.49 3.94 1.45 1,378.99 21.49 72.88 70.68
10-Mar-2017 06:25 22.68 2,879.90 2,880.36 3.92 1.45 1,377.31 21.38 72.82 70.48
10-Mar-2017 06:15 22.62 2,885.42 2,885.83 3.88 1.46 1,382.47 21.47 72.72 70.65
10-Mar-2017 06:10 22.62 2,887.71 2,888.12 3.86 1.46 1,383.61 21.55 72.72 70.79
10-Mar-2017 06:00 22.59 2,883.30 2,883.69 3.83 1.47 1,387.61 21.52 72.66 70.74
10-Mar-2017 05:55 22.59 2,896.36 2,896.75 3.81 1.47 1,387.51 21.50 72.66 70.70
10-Mar-2017 05:45 22.57 2,883.60 2,883.97 3.77 1.46 1,382.72 21.57 72.63 70.83
10-Mar-2017 05:40 22.53 2,894.23 2,894.57 3.75 1.47 1,387.11 21.63 72.55 70.93
10-Mar-2017 05:35 22.50 2,896.13 2,896.45 3.73 1.47 1,389.59 21.65 72.50 70.97
10-Mar-2017 05:30 22.45 2,899.36 2,899.63 3.70 1.47 1,393.67 21.73 72.41 71.11
10-Mar-2017 05:20 22.39 2,883.32 2,883.54 3.68 1.47 1,389.45 21.75 72.30 71.15
10-Mar-2017 05:10 22.29 2,887.81 2,887.93 3.63 1.47 1,395.60 21.86 72.12 71.35
10-Mar-2017 05:05 22.25 2,889.63 2,889.71 3.60 1.47 1,394.62 21.93 72.05 71.47
10-Mar-2017 05:00 22.23 2,897.93 2,898.00 3.58 1.47 1,394.04 22.10 72.01 71.78
10-Mar-2017 04:55 22.22 2,910.40 2,910.45 3.55 1.47 1,393.20 22.19 72.00 71.94
10-Mar-2017 04:50 22.22 2,917.83 2,917.87 3.51 1.47 1,390.79 22.32 72.00 72.18
10-Mar-2017 04:40 22.26 2,898.82 2,898.91 3.48 1.47 1,392.58 22.33 72.07 72.19
10-Mar-2017 04:35 22.32 2,852.03 2,852.17 3.45 1.45 1,379.59 22.28 72.18 72.10
10-Mar-2017 04:30 22.38 2,894.05 2,894.25 3.44 1.47 1,389.44 22.33 72.28 72.19
10-Mar-2017 04:25 22.42 2,905.80 2,906.04 3.41 1.47 1,389.86 22.38 72.36 72.28
10-Mar-2017 04:20 22.48 2,906.84 2,907.13 3.38 1.47 1,388.99 22.54 72.46 72.57
10-Mar-2017 04:15 22.52 2,898.35 2,898.68 3.35 1.46 1,385.88 22.51 72.54 72.52
10-Mar-2017 04:10 22.57 2,896.45 2,896.82 3.33 1.46 1,384.08 22.55 72.63 72.59
10-Mar-2017 04:00 22.64 2,897.03 2,897.46 3.30 1.46 1,379.59 22.48 72.75 72.46
10-Mar-2017 03:55 22.78 2,895.34 2,895.88 3.26 1.46 1,378.21 22.65 73.00 72.77
10-Mar-2017 03:45 22.91 2,881.84 2,882.47 3.23 1.45 1,368.48 22.73 73.24 72.91
10-Mar-2017 03:40 22.96 2,881.72 2,882.38 3.21 1.45 1,372.13 22.68 73.33 72.82
10-Mar-2017 03:25 22.90 2,890.50 2,891.13 3.16 1.46 1,376.80 22.82 73.22 73.08
10-Mar-2017 03:20 22.90 2,889.59 2,890.22 3.11 1.46 1,378.03 22.79 73.22 73.02
10-Mar-2017 03:10 22.76 2,907.45 2,907.97 3.06 1.47 1,385.84 22.88 72.97 73.18
10-Mar-2017 03:05 22.67 2,905.16 2,905.61 3.02 1.46 1,381.70 22.84 72.81 73.11
10-Mar-2017 03:00 22.65 2,895.00 2,895.44 3.00 1.46 1,381.56 22.82 72.77 73.08
10-Mar-2017 02:55 22.64 2,902.99 2,903.42 2.97 1.46 1,385.89 22.90 72.75 73.22
10-Mar-2017 02:50 22.68 2,910.86 2,911.33 2.94 1.47 1,386.94 22.91 72.82 73.24
10-Mar-2017 02:40 22.63 2,891.39 2,891.81 2.90 1.47 1,391.87 23.01 72.73 73.42
10-Mar-2017 02:15 22.61 2,909.82 2,910.23 2.83 1.47 1,393.80 23.05 72.70 73.49
10-Mar-2017 01:55 22.63 2,899.77 2,900.19 2.81 1.47 1,388.59 23.02 72.73 73.44
09-Mar-2017 09:55 21.84 2,916.28 2,915.92 3.42 1.48 1,408.70 24.53 71.31 76.15
09-Mar-2017 06:40 22.06 2,899.11 2,899.00 3.77 1.49 1,416.34 22.70 71.71 72.86
09-Mar-2017 06:25 22.06 2,911.46 2,911.35 3.76 1.48 1,411.24 22.58 71.71 72.64
09-Mar-2017 06:15 22.05 2,920.98 2,920.85 3.74 1.49 1,413.02 22.64 71.69 72.75
09-Mar-2017 06:10 22.05 2,919.99 2,919.86 3.73 1.49 1,414.56 22.67 71.69 72.81
09-Mar-2017 06:05 22.05 2,909.52 2,909.39 3.72 1.48 1,413.39 22.68 71.69 72.82
09-Mar-2017 05:50 22.04 2,780.91 2,780.78 3.67 1.43 1,364.57 22.64 71.67 72.75
09-Mar-2017 05:40 22.05 2,780.11 2,779.99 3.65 1.43 1,367.46 22.72 71.69 72.90
09-Mar-2017 05:25 22.05 2,772.70 2,772.58 3.60 1.44 1,371.60 22.75 71.69 72.95
09-Mar-2017 05:10 21.99 2,791.24 2,791.06 3.57 1.44 1,383.62 22.71 71.58 72.88
09-Mar-2017 05:05 21.99 2,792.60 2,792.41 3.56 1.44 1,380.94 22.69 71.58 72.84
09-Mar-2017 04:55 21.95 2,788.18 2,787.94 3.53 1.44 1,382.61 22.65 71.51 72.77
09-Mar-2017 04:50 21.93 2,796.42 2,796.16 3.51 1.44 1,379.63 22.67 71.47 72.81
09-Mar-2017 04:45 21.89 2,793.50 2,793.20 3.50 1.44 1,380.24 22.63 71.40 72.73
09-Mar-2017 04:40 21.85 2,803.15 2,802.81 3.48 1.44 1,385.52 22.53 71.33 72.55
09-Mar-2017 04:35 21.82 2,803.35 2,802.97 3.45 1.45 1,384.49 22.64 71.28 72.75
09-Mar-2017 04:20 21.79 2,753.90 2,753.49 3.38 1.42 1,360.28 22.61 71.22 72.70
09-Mar-2017 04:00 21.89 2,783.19 2,782.89 3.29 1.43 1,365.47 22.65 71.40 72.77
09-Mar-2017 03:55 21.93 2,781.11 2,780.86 3.27 1.42 1,360.78 22.68 71.47 72.82
09-Mar-2017 03:45 22.01 2,779.61 2,779.44 3.23 1.43 1,364.24 22.65 71.62 72.77
09-Mar-2017 03:30 22.07 2,767.84 2,767.74 3.17 1.42 1,363.69 22.68 71.73 72.82
09-Mar-2017 03:25 22.08 2,773.12 2,773.02 3.14 1.43 1,366.46 22.74 71.74 72.93
09-Mar-2017 03:20 22.11 2,759.67 2,759.61 3.12 1.42 1,357.69 22.75 71.80 72.95
09-Mar-2017 03:10 22.13 2,741.05 2,741.00 3.10 1.41 1,345.39 22.72 71.83 72.90
09-Mar-2017 03:05 22.12 2,774.09 2,774.03 3.08 1.42 1,356.88 22.71 71.82 72.88
09-Mar-2017 03:00 22.12 2,773.77 2,773.71 3.06 1.41 1,345.17 22.73 71.82 72.91
09-Mar-2017 02:55 22.15 2,772.64 2,772.62 3.05 1.41 1,345.22 22.69 71.87 72.84
09-Mar-2017 02:45 22.15 2,772.64 2,772.62 3.02 1.41 1,344.52 22.75 71.87 72.95
09-Mar-2017 02:40 22.17 2,760.72 2,760.72 2.98 1.41 1,349.68 22.71 71.91 72.88
09-Mar-2017 02:20 22.21 2,765.56 2,765.60 2.85 1.42 1,352.40 22.77 71.98 72.99
09-Mar-2017 01:50 22.23 2,772.79 2,772.84 2.74 1.42 1,350.63 22.93 72.01 73.27
09-Mar-2017 01:40 22.23 2,765.31 2,765.37 2.70 1.42 1,349.36 22.97 72.01 73.35
09-Mar-2017 01:35 22.24 2,759.36 2,759.42 2.68 1.41 1,350.45 22.97 72.03 73.35
09-Mar-2017 00:55 22.29 2,780.00 2,780.11 2.64 1.41 1,349.23 23.11 72.12 73.60
09-Mar-2017 00:35 22.35 2,779.57 2,779.73 2.65 1.41 1,343.29 23.07 72.23 73.53
09-Mar-2017 00:30 22.36 2,779.40 2,779.58 2.66 1.41 1,343.11 23.05 72.25 73.49
09-Mar-2017 00:20 22.39 2,773.44 2,773.64 2.68 1.41 1,344.42 23.10 72.30 73.58
09-Mar-2017 00:15 22.40 2,776.26 2,776.48 2.68 1.41 1,338.37 23.07 72.32 73.53
09-Mar-2017 00:10 22.42 2,787.88 2,788.12 2.70 1.41 1,341.26 23.07 72.36 73.53
09-Mar-2017 00:05 22.44 2,788.68 2,788.93 2.70 1.41 1,340.93 23.10 72.39 73.58
09-Mar-2017 00:00 22.45 2,773.76 2,774.02 2.71 1.40 1,336.29 23.01 72.41 73.42
08-Mar-2017 23:55 22.46 2,783.40 2,783.67 2.72 1.41 1,344.31 23.05 72.43 73.49
08-Mar-2017 23:50 22.47 2,781.95 2,782.23 2.73 1.40 1,339.70 22.96 72.45 73.33
08-Mar-2017 23:45 22.48 2,795.10 2,795.38 2.75 1.41 1,343.47 22.94 72.46 73.29
08-Mar-2017 23:40 22.49 2,788.22 2,788.51 2.76 1.42 1,354.31 22.95 72.48 73.31
08-Mar-2017 23:35 22.49 2,764.87 2,765.15 2.77 1.41 1,340.17 22.97 72.48 73.35
08-Mar-2017 23:30 22.48 2,771.63 2,771.91 2.78 1.41 1,340.42 23.04 72.46 73.47
08-Mar-2017 23:20 22.46 2,760.89 2,761.15 2.82 1.40 1,340.09 23.05 72.43 73.49
08-Mar-2017 23:15 22.45 2,756.01 2,756.26 2.83 1.41 1,339.02 23.04 72.41 73.47
08-Mar-2017 23:10 22.44 2,751.27 2,751.51 2.85 1.40 1,344.74 23.03 72.39 73.45
08-Mar-2017 23:05 22.43 2,766.18 2,766.42 2.86 1.41 1,345.45 23.09 72.37 73.56
08-Mar-2017 22:55 22.42 2,773.46 2,773.69 2.90 1.41 1,350.87 23.08 72.36 73.54
08-Mar-2017 22:40 22.46 2,767.31 2,767.57 2.96 1.42 1,354.79 23.24 72.43 73.83
08-Mar-2017 22:30 22.48 2,754.32 2,754.60 2.99 1.41 1,348.38 23.34 72.46 74.01
08-Mar-2017 22:20 22.49 2,754.23 2,754.52 3.02 1.42 1,360.77 23.36 72.48 74.05
08-Mar-2017 22:05 22.51 2,773.96 2,774.27 3.07 1.42 1,357.11 23.18 72.52 73.72
08-Mar-2017 21:55 22.51 2,770.89 2,771.19 3.11 1.42 1,355.29 23.03 72.52 73.45
08-Mar-2017 21:50 22.53 2,771.04 2,771.36 3.14 1.42 1,355.21 22.92 72.55 73.26
08-Mar-2017 21:45 22.53 2,775.51 2,775.83 3.17 1.42 1,357.86 22.77 72.55 72.99
08-Mar-2017 21:40 22.53 2,778.95 2,779.27 3.20 1.42 1,360.48 22.70 72.55 72.86
08-Mar-2017 21:35 22.54 2,764.50 2,764.83 3.22 1.42 1,357.15 22.66 72.57 72.79
08-Mar-2017 21:30 22.54 2,780.27 2,780.61 3.24 1.42 1,360.03 22.70 72.57 72.86
08-Mar-2017 21:25 22.55 2,788.12 2,788.46 3.27 1.42 1,357.42 22.78 72.59 73.00
08-Mar-2017 21:05 22.54 2,780.36 2,780.68 3.36 1.41 1,352.06 22.98 72.57 73.36
08-Mar-2017 20:40 22.51 2,766.75 2,767.05 3.44 1.41 1,348.57 22.93 72.52 73.27
08-Mar-2017 20:05 22.40 2,773.91 2,774.12 3.60 1.42 1,362.46 22.81 72.32 73.06
08-Mar-2017 19:55 22.36 2,798.28 2,798.45 3.65 1.43 1,364.41 22.76 72.25 72.97
08-Mar-2017 19:45 22.37 2,785.09 2,785.27 3.69 1.42 1,355.63 22.82 72.27 73.08
08-Mar-2017 19:30 22.54 2,918.95 2,919.29 3.74 1.48 1,405.23 23.04 72.57 73.47
08-Mar-2017 18:55 22.80 2,918.78 2,919.34 3.81 1.48 1,405.24 23.03 73.04 73.45
08-Mar-2017 18:45 22.90 2,921.63 2,922.26 3.82 1.48 1,401.92 23.14 73.22 73.65
08-Mar-2017 18:35 23.00 2,920.33 2,921.03 3.81 1.48 1,396.48 23.23 73.40 73.81
08-Mar-2017 18:10 23.12 2,892.94 2,893.70 3.81 1.46 1,383.90 23.44 73.62 74.19
08-Mar-2017 17:55 23.17 2,921.53 2,922.33 3.81 1.48 1,400.17 23.67 73.71 74.61
08-Mar-2017 17:45 23.19 2,920.09 2,920.90 3.80 1.47 1,390.45 23.81 73.74 74.86
08-Mar-2017 17:40 23.21 2,920.73 2,921.56 3.78 1.47 1,388.46 23.91 73.78 75.04
08-Mar-2017 17:35 23.23 2,922.17 2,923.00 3.76 1.47 1,394.38 24.06 73.81 75.31
08-Mar-2017 17:15 23.29 2,905.95 2,906.81 3.70 1.47 1,385.97 24.10 73.92 75.38
08-Mar-2017 17:10 23.31 2,902.73 2,903.60 3.72 1.46 1,382.94 23.85 73.96 74.93
08-Mar-2017 16:55 23.33 2,906.07 2,906.96 3.66 1.47 1,384.57 25.07 73.99 77.13
08-Mar-2017 16:25 23.75 2,898.94 2,899.99 3.56 1.46 1,374.24 24.69 74.75 76.44
08-Mar-2017 08:05 20.92 2,947.24 2,945.53 3.55 1.60 1,548.54 23.40 69.66 74.12
08-Mar-2017 07:55 20.95 2,937.89 2,936.24 3.58 1.59 1,539.37 23.38 69.71 74.08
08-Mar-2017 06:35 20.88 2,906.88 2,905.13 3.79 1.56 1,508.72 22.37 69.58 72.27
08-Mar-2017 05:40 20.89 2,906.26 2,904.53 3.75 1.56 1,521.88 22.24 69.60 72.03
08-Mar-2017 05:35 20.86 2,915.42 2,913.63 3.73 1.57 1,519.06 22.31 69.55 72.16
08-Mar-2017 05:10 20.81 2,921.88 2,920.01 3.70 1.58 1,531.31 22.30 69.46 72.14
08-Mar-2017 05:05 20.81 2,905.05 2,903.20 3.69 1.57 1,525.08 22.33 69.46 72.19
08-Mar-2017 04:35 20.87 2,916.99 2,915.22 3.64 1.58 1,540.52 22.35 69.57 72.23
08-Mar-2017 04:30 20.85 2,921.75 2,919.95 3.63 1.58 1,534.11 22.41 69.53 72.34
08-Mar-2017 04:25 20.84 2,907.48 2,905.67 3.60 1.57 1,528.25 22.42 69.51 72.36
08-Mar-2017 04:10 20.81 2,922.77 2,920.89 3.55 1.59 1,543.56 22.46 69.46 72.43
08-Mar-2017 04:05 20.79 2,919.41 2,917.50 3.53 1.58 1,539.94 22.45 69.42 72.41
08-Mar-2017 03:45 20.76 2,925.68 2,923.72 3.48 1.58 1,538.01 22.46 69.37 72.43
08-Mar-2017 03:40 20.77 2,929.86 2,927.91 3.46 1.58 1,532.51 22.41 69.39 72.34
08-Mar-2017 03:30 20.79 2,917.99 2,916.09 3.43 1.57 1,530.50 22.29 69.42 72.12
08-Mar-2017 03:25 20.81 2,912.70 2,910.83 3.42 1.57 1,525.40 22.36 69.46 72.25
08-Mar-2017 03:15 20.84 2,895.50 2,893.69 3.38 1.56 1,509.24 22.39 69.51 72.30
08-Mar-2017 03:10 20.86 2,895.96 2,894.19 3.36 1.55 1,505.24 22.39 69.55 72.30
08-Mar-2017 03:05 20.87 2,877.69 2,875.94 3.33 1.55 1,503.00 22.45 69.57 72.41
08-Mar-2017 01:05 21.21 2,891.67 2,890.46 2.85 1.47 1,398.71 22.44 70.18 72.39
07-Mar-2017 23:40 21.14 2,886.52 2,885.21 2.76 1.49 1,424.16 22.57 70.05 72.63
07-Mar-2017 05:45 19.48 3,231.59 3,226.44 4.05 1.89 1,834.24 21.68 67.06 71.02
07-Mar-2017 05:15 19.34 3,339.26 3,333.54 4.05 1.94 1,871.52 21.61 66.81 70.90
07-Mar-2017 05:05 19.34 3,346.37 3,340.65 4.04 1.93 1,868.89 21.60 66.81 70.88
07-Mar-2017 04:45 19.37 3,320.30 3,314.71 4.02 1.93 1,859.17 21.77 66.87 71.19
06-Mar-2017 23:20 19.77 3,119.71 3,115.49 3.06 1.78 1,732.42 21.88 67.59 71.38
06-Mar-2017 05:25 20.12 3,090.19 3,086.80 3.93 1.74 1,718.41 20.86 68.22 69.55
06-Mar-2017 04:15 19.90 3,137.28 3,133.35 4.05 1.80 1,749.94 20.91 67.82 69.64
06-Mar-2017 04:00 19.98 3,112.62 3,108.89 4.07 1.78 1,725.73 20.86 67.96 69.55
06-Mar-2017 03:55 19.99 3,122.22 3,118.52 4.07 1.79 1,726.46 20.86 67.98 69.55
06-Mar-2017 03:50 20.00 3,126.38 3,122.69 4.06 1.80 1,735.21 20.91 68.00 69.64
06-Mar-2017 03:45 20.01 3,099.74 3,096.09 4.05 1.77 1,717.32 20.93 68.02 69.67
06-Mar-2017 03:30 20.05 3,069.27 3,065.77 4.05 1.75 1,692.87 20.96 68.09 69.73
06-Mar-2017 03:15 20.10 3,059.80 3,056.42 4.03 1.73 1,692.28 21.06 68.18 69.91
06-Mar-2017 03:00 20.20 3,038.32 3,035.16 4.01 1.73 1,682.06 21.13 68.36 70.03
06-Mar-2017 02:50 20.16 3,039.36 3,036.13 3.98 1.73 1,688.13 21.17 68.29 70.11
06-Mar-2017 02:40 20.14 3,047.75 3,044.47 3.97 1.72 1,662.55 21.07 68.25 69.93
06-Mar-2017 01:55 19.89 3,183.68 3,179.66 3.82 1.81 1,752.13 21.11 67.80 70.00
06-Mar-2017 01:50 19.92 3,179.10 3,175.17 3.81 1.81 1,755.11 21.17 67.86 70.11
06-Mar-2017 01:45 19.98 3,134.20 3,130.46 3.80 1.78 1,727.40 21.19 67.96 70.14
06-Mar-2017 01:25 20.09 3,041.61 3,038.23 3.72 1.72 1,667.72 21.17 68.16 70.11
06-Mar-2017 00:50 20.37 2,990.77 2,988.02 3.61 1.68 1,629.41 21.31 68.67 70.36
06-Mar-2017 00:35 20.50 3,058.03 3,055.48 3.55 1.74 1,656.28 21.33 68.90 70.39
06-Mar-2017 00:30 20.58 3,000.21 2,997.87 3.56 1.70 1,658.85 21.38 69.04 70.48
06-Mar-2017 00:15 20.66 3,023.71 3,021.49 3.48 1.70 1,642.71 21.31 69.19 70.36
05-Mar-2017 23:55 20.69 2,999.37 2,997.23 3.38 1.68 1,619.09 21.23 69.24 70.21
05-Mar-2017 23:50 20.68 2,948.54 2,946.42 3.33 1.63 1,601.18 21.31 69.22 70.36
05-Mar-2017 23:30 20.63 2,977.00 2,974.77 3.27 1.66 1,611.68 21.30 69.13 70.34
05-Mar-2017 23:05 20.60 3,010.30 3,007.98 3.22 1.68 1,634.08 21.39 69.08 70.50
05-Mar-2017 23:00 20.60 2,995.03 2,992.73 3.22 1.68 1,629.32 21.41 69.08 70.54
05-Mar-2017 20:40 20.80 2,956.46 2,954.55 3.28 1.65 1,593.92 21.42 69.44 70.56
05-Mar-2017 18:30 21.12 2,997.34 2,995.94 3.71 1.66 1,605.43 21.60 70.02 70.88
05-Mar-2017 15:25 21.34 2,954.58 2,953.54 4.33 1.62 1,568.06 22.02 70.41 71.64
05-Mar-2017 14:30 21.11 2,962.65 2,961.25 4.36 1.64 1,592.74 22.25 70.00 72.05
05-Mar-2017 10:15 20.79 2,900.88 2,898.99 3.51 1.60 1,549.65 21.80 69.42 71.24
05-Mar-2017 09:25 20.63 2,937.18 2,934.98 3.40 1.62 1,569.85 21.74 69.13 71.13
05-Mar-2017 08:45 20.54 2,967.23 2,964.83 3.39 1.64 1,585.98 21.77 68.97 71.19
05-Mar-2017 08:25 20.53 2,994.31 2,991.87 3.37 1.66 1,610.94 21.96 68.95 71.53
05-Mar-2017 08:05 20.55 2,962.57 2,960.20 3.38 1.66 1,613.21 21.75 68.99 71.15
05-Mar-2017 07:40 20.61 2,956.17 2,953.92 3.46 1.64 1,586.19 21.53 69.10 70.75
05-Mar-2017 07:20 20.69 2,963.10 2,960.98 3.47 1.60 1,543.29 21.57 69.24 70.83
05-Mar-2017 07:05 20.75 2,951.10 2,949.11 3.54 1.59 1,544.53 21.55 69.35 70.79
05-Mar-2017 07:00 20.78 2,954.82 2,952.87 3.55 1.61 1,549.49 21.56 69.40 70.81
05-Mar-2017 06:50 20.80 2,942.21 2,940.31 3.57 1.60 1,544.25 21.56 69.44 70.81
05-Mar-2017 06:40 20.81 2,946.16 2,944.27 3.60 1.59 1,530.55 21.62 69.46 70.92
05-Mar-2017 06:10 20.86 2,852.79 2,851.05 3.64 1.57 1,525.96 21.69 69.55 71.04
05-Mar-2017 05:55 20.91 2,864.85 2,863.17 3.72 1.56 1,521.79 21.71 69.64 71.08
05-Mar-2017 05:40 20.93 2,886.56 2,884.92 3.78 1.58 1,528.27 21.80 69.67 71.24
05-Mar-2017 05:30 20.95 2,955.29 2,953.64 3.81 1.61 1,547.96 21.80 69.71 71.24
05-Mar-2017 05:25 20.95 2,877.10 2,875.48 3.83 1.57 1,520.41 21.78 69.71 71.20
05-Mar-2017 05:20 20.96 2,878.42 2,876.82 3.85 1.57 1,530.15 21.83 69.73 71.29
05-Mar-2017 05:15 20.99 2,942.85 2,941.26 3.86 1.58 1,531.21 21.83 69.78 71.29
05-Mar-2017 05:05 21.02 2,875.79 2,874.28 3.89 1.57 1,522.61 21.83 69.84 71.29
05-Mar-2017 04:35 21.40 2,829.67 2,828.76 4.00 1.53 1,477.84 21.96 70.52 71.53
05-Mar-2017 04:25 21.47 2,835.80 2,834.98 4.03 1.53 1,485.05 21.97 70.65 71.55
05-Mar-2017 04:15 21.60 2,896.54 2,895.87 4.07 1.54 1,473.85 22.04 70.88 71.67
05-Mar-2017 04:00 21.55 2,829.55 2,828.83 4.10 1.52 1,470.87 21.95 70.79 71.51
05-Mar-2017 03:35 21.35 2,915.49 2,914.47 4.16 1.55 1,477.63 21.91 70.43 71.44
05-Mar-2017 03:15 21.25 2,915.82 2,914.66 4.16 1.56 1,501.01 21.83 70.25 71.29
05-Mar-2017 02:40 21.41 2,817.13 2,816.23 4.14 1.51 1,460.47 21.87 70.54 71.37
05-Mar-2017 02:35 21.42 2,808.00 2,807.12 4.14 1.50 1,454.61 21.82 70.56 71.28
05-Mar-2017 02:15 21.48 2,810.17 2,809.37 4.12 1.52 1,467.08 21.80 70.66 71.24
05-Mar-2017 02:00 21.53 2,815.98 2,815.24 4.09 1.51 1,458.20 21.85 70.75 71.33
05-Mar-2017 01:35 21.69 2,874.37 2,873.82 4.04 1.51 1,452.95 21.73 71.04 71.11
05-Mar-2017 01:30 21.70 2,799.85 2,799.34 4.04 1.50 1,446.24 21.75 71.06 71.15
05-Mar-2017 01:10 21.67 2,878.30 2,877.73 3.98 1.53 1,458.61 21.76 71.01 71.17
05-Mar-2017 00:55 21.57 2,892.87 2,892.16 3.94 1.53 1,479.71 21.70 70.83 71.06
05-Mar-2017 00:40 21.62 2,888.56 2,887.92 3.88 1.52 1,471.81 21.69 70.92 71.04
05-Mar-2017 00:30 21.67 2,871.90 2,871.33 3.85 1.51 1,465.19 21.70 71.01 71.06
05-Mar-2017 00:15 21.77 2,863.55 2,863.10 3.78 1.51 1,457.87 21.71 71.19 71.08
04-Mar-2017 20:10 22.66 2,832.20 2,832.64 3.15 1.44 1,385.00 22.11 72.79 71.80
04-Mar-2017 19:15 22.92 2,755.06 2,755.67 3.26 1.44 1,380.42 22.18 73.26 71.92
04-Mar-2017 17:40 23.12 2,759.11 2,759.84 3.55 1.45 1,402.04 22.43 73.62 72.37
04-Mar-2017 10:35 22.79 2,774.05 2,774.57 3.72 1.48 1,428.56 22.93 73.02 73.27
04-Mar-2017 09:20 22.39 2,791.20 2,791.40 3.44 1.50 1,455.59 22.68 72.30 72.82
04-Mar-2017 08:35 22.30 2,842.54 2,842.67 3.39 1.55 1,494.51 22.52 72.14 72.54
04-Mar-2017 08:05 22.28 2,824.32 2,824.43 3.34 1.53 1,473.21 22.48 72.10 72.46
04-Mar-2017 06:50 22.44 2,780.24 2,780.49 3.45 1.49 1,446.42 22.01 72.39 71.62
04-Mar-2017 06:40 22.48 2,776.62 2,776.90 3.48 1.47 1,424.38 21.91 72.46 71.44
04-Mar-2017 06:30 22.51 2,773.44 2,773.75 3.50 1.46 1,406.44 21.87 72.52 71.37
04-Mar-2017 06:20 22.56 2,773.81 2,774.16 3.53 1.42 1,366.31 21.93 72.61 71.47
04-Mar-2017 05:30 22.81 2,693.64 2,694.16 3.70 1.45 1,403.31 22.08 73.06 71.74
04-Mar-2017 05:15 22.93 2,688.34 2,688.94 3.77 1.46 1,402.36 22.00 73.27 71.60
04-Mar-2017 05:10 22.97 2,667.83 2,668.45 3.78 1.44 1,405.78 22.05 73.35 71.69
04-Mar-2017 04:50 23.08 2,665.22 2,665.90 3.85 1.44 1,391.98 22.15 73.54 71.87
04-Mar-2017 04:45 23.11 2,676.95 2,677.65 3.87 1.44 1,388.00 22.12 73.60 71.82
04-Mar-2017 04:35 23.17 2,674.29 2,675.03 3.87 1.44 1,388.26 22.17 73.71 71.91
04-Mar-2017 04:30 23.19 2,686.01 2,686.76 3.89 1.46 1,403.44 22.23 73.74 72.01
04-Mar-2017 04:00 23.21 2,675.33 2,676.08 4.01 1.45 1,394.60 22.33 73.78 72.19
04-Mar-2017 03:55 23.23 2,681.40 2,682.16 4.02 1.44 1,394.55 22.37 73.81 72.27
04-Mar-2017 03:45 23.28 2,667.05 2,667.84 4.07 1.44 1,389.16 22.35 73.90 72.23
04-Mar-2017 03:40 23.26 2,673.46 2,674.25 4.07 1.44 1,386.75 22.38 73.87 72.28
04-Mar-2017 03:35 23.28 2,672.67 2,673.46 4.09 1.44 1,387.17 22.35 73.90 72.23
04-Mar-2017 03:20 23.46 2,632.34 2,633.20 4.14 1.40 1,356.29 22.39 74.23 72.30
04-Mar-2017 03:05 23.63 2,626.83 2,627.74 4.20 1.37 1,326.58 22.34 74.53 72.21
04-Mar-2017 02:50 23.87 2,623.41 2,624.40 4.25 1.36 1,310.22 22.41 74.97 72.34
04-Mar-2017 02:45 23.89 2,626.25 2,627.25 4.26 1.37 1,309.03 22.41 75.00 72.34
04-Mar-2017 01:55 23.64 2,631.72 2,632.65 4.37 1.40 1,350.83 22.62 74.55 72.72
04-Mar-2017 01:45 23.66 2,616.96 2,617.89 4.36 1.38 1,334.82 22.63 74.59 72.73
04-Mar-2017 01:40 23.66 2,619.10 2,620.03 4.36 1.37 1,331.63 22.67 74.59 72.81
04-Mar-2017 01:20 23.67 2,629.95 2,630.89 4.34 1.39 1,345.40 22.72 74.61 72.90
04-Mar-2017 00:55 23.68 2,696.42 2,697.38 4.31 1.43 1,373.63 22.86 74.62 73.15
04-Mar-2017 00:20 23.88 2,652.69 2,653.69 4.21 1.39 1,336.11 22.98 74.98 73.36
04-Mar-2017 00:10 23.96 2,578.90 2,579.90 4.19 1.35 1,307.45 23.00 75.13 73.40
02-Mar-2017 21:30 25.80 2,549.48 2,550.26 3.43 1.29 1,222.31 24.79 78.44 76.62
02-Mar-2017 18:40 26.18 2,688.23 2,688.87 2.83 1.35 1,277.64 25.64 79.12 78.15
02-Mar-2017 16:25 26.46 2,676.93 2,677.39 3.16 1.34 1,271.42 28.05 79.63 82.49
02-Mar-2017 16:20 26.45 2,675.31 2,675.78 3.15 1.34 1,272.97 28.42 79.61 83.16
02-Mar-2017 16:15 26.44 2,668.87 2,669.35 3.16 1.35 1,272.72 28.50 79.59 83.30
02-Mar-2017 16:05 26.42 2,676.60 2,677.10 3.20 1.35 1,274.14 28.62 79.56 83.52
02-Mar-2017 15:55 26.41 2,670.58 2,671.08 3.22 1.35 1,271.21 28.76 79.54 83.77
02-Mar-2017 15:50 26.37 2,660.56 2,661.08 3.27 1.34 1,266.80 28.66 79.47 83.59
02-Mar-2017 15:40 26.34 2,666.10 2,666.65 3.29 1.34 1,266.87 28.67 79.41 83.61
02-Mar-2017 15:35 26.28 2,658.25 2,658.82 3.34 1.34 1,266.68 28.63 79.30 83.53
02-Mar-2017 15:30 26.25 2,670.50 2,671.09 3.36 1.34 1,269.46 28.77 79.25 83.79
02-Mar-2017 15:25 26.22 2,655.20 2,655.82 3.40 1.34 1,269.98 28.69 79.20 83.64
02-Mar-2017 15:20 26.18 2,661.99 2,662.62 3.43 1.34 1,270.10 28.72 79.12 83.70
02-Mar-2017 15:05 26.10 2,661.90 2,662.58 3.46 1.34 1,270.86 28.60 78.98 83.48
02-Mar-2017 15:00 26.07 2,670.50 2,671.20 3.53 1.35 1,273.39 28.15 78.93 82.67
02-Mar-2017 14:55 26.06 2,668.06 2,668.76 3.57 1.35 1,274.45 28.13 78.91 82.63
02-Mar-2017 14:50 26.02 2,663.29 2,664.01 3.61 1.34 1,272.84 27.92 78.84 82.26
02-Mar-2017 14:45 26.00 2,659.70 2,660.42 3.64 1.34 1,270.74 28.14 78.80 82.65
01-Mar-2017 05:20 24.39 2,487.93 2,488.95 3.03 1.27 1,215.94 24.36 75.90 75.85
01-Mar-2017 05:05 24.41 2,523.37 2,524.40 3.04 1.28 1,229.01 24.37 75.94 75.87
01-Mar-2017 03:55 24.49 2,510.17 2,511.19 3.20 1.27 1,209.78 24.34 76.08 75.81
01-Mar-2017 02:55 24.74 2,506.28 2,507.30 3.47 1.26 1,200.89 24.60 76.53 76.28
01-Mar-2017 02:45 24.77 2,499.08 2,500.10 3.51 1.26 1,199.58 24.53 76.59 76.15